Time;durP1;ratioP1;P1;durP2;ratioP2;P2;SDS_P1;SDS_P2;PMS_P1;PMS_P2;Temp;Humidity;BMP_temperature;BMP_pressure;BME280_temperature;BME280_humidity;BME280_pressure;Samples;Min_cycle;Max_cycle;Signal;HPM_P1;HPM_P2
2022/12/25 00:01:19;;;;;;;;;;;;;;;5.60;96.16;97831.31;1738921;82;20357;-71
2022/12/25 00:03:48;;;;;;;;;;;;;;;5.57;95.82;97839.22;1726032;83;20326;-71
2022/12/25 00:06:14;;;;;;;;;;;;;;;5.53;95.98;97839.25;1726069;83;20097;-71
2022/12/25 00:08:41;;;;;;;;;;;;;;;5.54;96.12;97829.61;1731715;82;20152;-71
2022/12/25 00:11:13;;;;;;;;;;;;;;;5.54;95.88;97835.75;1755884;82;20418;-71
2022/12/25 00:13:39;;;;;;;;;;;;;;;5.48;95.69;97833.64;1756011;82;20091;-71
2022/12/25 00:16:07;;;;;;;;;;;;;;;5.47;95.97;97844.58;1755746;82;20087;-71
2022/12/25 00:18:33;;;;;;;;;;;;;;;5.44;95.75;97844.61;1755935;82;20118;-71
2022/12/25 00:21:03;;;;;;;;;;;;;;;5.41;95.80;97860.44;1743542;82;20085;-71
2022/12/25 00:23:29;;;;;;;;;;;;;;;5.34;95.40;97854.80;1727411;82;20326;-71
2022/12/25 00:25:56;;;;;;;;;;;;;;;5.28;95.47;97859.23;1748766;82;20147;-71
2022/12/25 00:28:23;;;;;;;;;;;;;;;5.22;95.36;97859.73;1755814;82;20407;-71
2022/12/25 00:30:49;;;;;;;;;;;;;;;5.12;95.40;97854.57;1755902;82;20359;-72
2022/12/25 00:33:16;;;;;;;;;;;;;;;5.06;95.52;97853.33;1751102;82;20087;-71
2022/12/25 00:35:42;;;;;;;;;;;;;;;4.99;95.27;97863.48;1726126;83;20381;-71
2022/12/25 00:38:09;;;;;;;;;;;;;;;4.89;95.14;97863.55;1725932;83;20101;-71
2022/12/25 00:40:43;;;;;;;;;;;;;;;4.79;95.45;97851.40;1726228;83;20094;-71
2022/12/25 00:43:09;;;;;;;;;;;;;;;4.72;95.18;97858.87;1733692;82;20099;-71
2022/12/25 00:45:35;;;;;;;;;;;;;;;4.61;95.38;97862.47;1755893;82;20135;-71
2022/12/25 00:48:02;;;;;;;;;;;;;;;4.52;95.46;97862.53;1755818;82;20414;-71
2022/12/25 00:50:28;;;;;;;;;;;;;;;4.48;96.09;97863.42;1755708;82;20091;-71
2022/12/25 00:52:54;;;;;;;;;;;;;;;4.43;96.04;97871.34;1755804;82;20083;-71
2022/12/25 00:55:21;;;;;;;;;;;;;;;4.35;95.63;97870.09;1748970;82;20157;-71
2022/12/25 00:57:47;;;;;;;;;;;;;;;4.28;95.35;97872.30;1725812;83;20174;-71
2022/12/25 01:00:14;;;;;;;;;;;;;;;4.19;95.30;97879.80;1726040;83;20105;-71
2022/12/25 01:02:40;;;;;;;;;;;;;;;4.13;95.42;97892.95;1725974;82;20333;-71
2022/12/25 01:05:08;;;;;;;;;;;;;;;4.06;95.23;97887.30;1726041;83;20120;-71
2022/12/25 01:07:35;;;;;;;;;;;;;;;3.96;95.35;97886.02;1735137;82;20095;-70
2022/12/25 01:12:46;;;;;;;;;;;;;;;3.84;95.42;97888.72;1755914;82;20335;-70
2022/12/25 01:15:12;;;;;;;;;;;;;;;3.79;95.37;97895.28;1755852;82;20118;-70
2022/12/25 01:17:39;;;;;;;;;;;;;;;3.78;95.57;97902.72;1755950;82;20087;-71
2022/12/25 01:20:07;;;;;;;;;;;;;;;3.79;95.75;97906.22;1742725;82;20094;-71
2022/12/25 01:22:33;;;;;;;;;;;;;;;3.83;95.96;97903.56;1725937;83;20138;-70
2022/12/25 01:25:00;;;;;;;;;;;;;;;3.89;96.10;97902.68;1725988;83;20089;-70
2022/12/25 01:27:26;;;;;;;;;;;;;;;3.99;97.37;97894.35;1726143;83;20132;-71
2022/12/25 01:29:54;;;;;;;;;;;;;;;4.11;96.91;97899.09;1726150;83;20121;-71
2022/12/25 01:32:20;;;;;;;;;;;;;;;4.21;97.11;97899.05;1728171;82;20135;-71
2022/12/25 01:34:46;;;;;;;;;;;;;;;4.32;96.95;97885.84;1726104;83;20128;-70
2022/12/25 01:37:13;;;;;;;;;;;;;;;4.43;96.94;97887.09;1726120;83;20089;-71
2022/12/25 01:39:39;;;;;;;;;;;;;;;4.51;96.61;97888.78;1726150;83;20129;-71
2022/12/25 01:42:05;;;;;;;;;;;;;;;4.57;96.30;97891.39;1733513;82;20316;-70
2022/12/25 01:44:38;;;;;;;;;;;;;;;4.60;96.01;97897.48;1756111;82;20142;-70
2022/12/25 01:47:05;;;;;;;;;;;;;;;4.65;96.04;97896.12;1755944;82;20324;-70
2022/12/25 01:49:37;;;;;;;;;;;;;;;4.71;96.12;97896.09;1755928;82;20375;-70
2022/12/25 01:52:09;;;;;;;;;;;;;;;4.74;95.58;97897.83;1755977;82;20100;-69
2022/12/25 01:54:49;;;;;;;;;;;;;;;4.71;95.43;97892.58;1746222;82;20117;-70
2022/12/25 01:57:18;;;;;;;;;;;;;;;4.72;95.30;97896.52;1687308;83;20261;-70
2022/12/25 01:59:45;;;;;;;;;;;;;;;4.71;95.40;97895.20;1724960;83;20353;-71
2022/12/25 02:02:12;;;;;;;;;;;;;;;4.69;95.27;97893.91;1734786;81;20131;-71
2022/12/25 02:04:41;;;;;;;;;;;;;;;4.66;95.17;97899.63;1744750;81;20083;-71
2022/12/25 02:07:19;;;;;;;;;;;;;;;4.62;95.23;97890.45;1748378;81;20348;-71
2022/12/25 02:09:46;;;;;;;;;;;;;;;4.61;95.12;97891.34;1746564;82;20250;-71
2022/12/25 02:12:22;;;;;;;;;;;;;;;4.57;94.97;97889.61;1775342;81;20357;-71
2022/12/25 02:14:50;;;;;;;;;;;;;;;4.54;95.21;97893.59;1777000;80;20117;-71
2022/12/25 02:17:32;;;;;;;;;;;;;;;4.50;94.96;97898.42;1770387;81;20326;-71
2022/12/25 02:20:11;;;;;;;;;;;;;;;4.41;95.00;97895.86;1777296;81;20089;-71
2022/12/25 02:22:44;;;;;;;;;;;;;;;4.39;95.57;97889.77;1718329;81;20081;-71
2022/12/25 02:25:14;;;;;;;;;;;;;;;4.41;95.49;97894.55;1721429;81;20093;-71
2022/12/25 02:28:10;;;;;;;;;;;;;;;4.36;95.09;97893.25;1776052;81;20140;-71
2022/12/25 02:30:58;;;;;;;;;;;;;;;4.31;95.09;97912.08;1746530;82;20150;-71
2022/12/25 02:36:17;;;;;;;;;;;;;;;4.40;95.67;97907.24;1746379;82;20099;-72
2022/12/25 02:41:32;;;;;;;;;;;;;;;4.44;94.99;97926.03;1747290;81;20311;-72
2022/12/25 03:12:26;;;;;;;;;;;;;;;4.56;95.29;97939.05;1747040;81;20355;-70
2022/12/25 03:17:37;;;;;;;;;;;;;;;4.49;95.23;97946.55;1746475;82;20111;-70
2022/12/25 03:28:20;;;;;;;;;;;;;;;4.29;94.79;97956.72;1777189;81;20341;-70
2022/12/25 03:31:11;;;;;;;;;;;;;;;4.33;95.26;97962.81;1777077;80;20117;-70
2022/12/25 03:36:43;;;;;;;;;;;;;;;4.25;94.77;97966.79;1746454;82;20110;-70
2022/12/25 04:37:49;;;;;;;;;;;;;;;2.62;94.87;98012.36;1746530;82;20092;-70
2022/12/25 04:40:16;;;;;;;;;;;;;;;2.58;94.66;98016.69;1746403;82;20135;-70
2022/12/25 04:42:42;;;;;;;;;;;;;;;2.58;94.88;98019.76;1746293;82;20138;-70
2022/12/25 04:45:10;;;;;;;;;;;;;;;2.58;94.84;98023.68;1763586;81;20081;-70
2022/12/25 04:47:37;;;;;;;;;;;;;;;2.58;95.03;98031.53;1777092;80;20184;-70
2022/12/25 04:50:04;;;;;;;;;;;;;;;2.56;95.05;98028.02;1776887;81;20084;-70
2022/12/25 04:52:36;;;;;;;;;;;;;;;2.57;95.06;98033.72;1773226;81;20563;-70
2022/12/25 04:55:03;;;;;;;;;;;;;;;2.54;94.78;98037.62;1746456;82;20123;-70
2022/12/25 04:57:29;;;;;;;;;;;;;;;2.50;94.85;98034.13;1746464;82;20110;-70
2022/12/25 04:59:55;;;;;;;;;;;;;;;2.48;94.87;98037.15;1746458;82;20110;-70
2022/12/25 05:02:22;;;;;;;;;;;;;;;2.49;94.81;98045.02;1747910;81;20367;-70
2022/12/25 05:04:48;;;;;;;;;;;;;;;2.49;94.87;98045.02;1776860;81;20081;-71
2022/12/25 05:07:14;;;;;;;;;;;;;;;2.50;94.96;98050.67;1771388;80;20325;-70
2022/12/25 05:09:40;;;;;;;;;;;;;;;2.56;95.19;98054.18;1770820;81;20090;-70
2022/12/25 05:12:08;;;;;;;;;;;;;;;2.57;95.09;98050.72;1770651;81;20097;-70
2022/12/25 05:14:34;;;;;;;;;;;;;;;2.61;95.05;98049.84;1765471;81;20336;-71
2022/12/25 05:17:01;;;;;;;;;;;;;;;2.61;94.72;98053.77;1750258;81;20148;-70
2022/12/25 05:19:27;;;;;;;;;;;;;;;2.60;94.99;98051.59;1770793;81;20361;-70
2022/12/25 05:21:54;;;;;;;;;;;;;;;2.66;95.20;98051.17;1770673;81;20105;-71
2022/12/25 05:24:24;;;;;;;;;;;;;;;2.72;95.17;98048.57;1770609;81;20082;-70
2022/12/25 05:26:50;;;;;;;;;;;;;;;2.79;95.45;98045.54;1761265;81;20092;-70
2022/12/25 05:29:16;;;;;;;;;;;;;;;2.79;94.88;98047.73;1740335;83;20392;-70
2022/12/25 05:31:43;;;;;;;;;;;;;;;2.80;94.93;98047.28;1740339;82;20093;-70
2022/12/25 05:34:09;;;;;;;;;;;;;;;2.85;95.20;98052.09;1740270;82;20107;-70
2022/12/25 05:36:35;;;;;;;;;;;;;;;2.88;95.35;98058.66;1740325;82;20095;-70
2022/12/25 05:39:03;;;;;;;;;;;;;;;2.94;95.44;98063.89;1714109;83;20130;-71
2022/12/25 05:41:30;;;;;;;;;;;;;;;2.98;95.20;98057.80;1739976;82;20137;-70
2022/12/25 05:43:56;;;;;;;;;;;;;;;3.01;95.44;98064.36;1740387;83;20131;-70
2022/12/25 05:46:22;;;;;;;;;;;;;;;3.09;95.55;98063.48;1740232;82;20136;-70
2022/12/25 05:48:49;;;;;;;;;;;;;;;3.14;95.75;98065.25;1740490;82;20084;-71
2022/12/25 05:51:15;;;;;;;;;;;;;;;3.18;95.59;98068.74;1741145;81;20329;-71
2022/12/25 05:53:42;;;;;;;;;;;;;;;3.19;95.73;98066.55;1740269;82;20154;-70
2022/12/25 05:56:09;;;;;;;;;;;;;;;3.19;95.53;98076.17;1740288;82;20325;-70
2022/12/25 05:58:37;;;;;;;;;;;;;;;3.21;95.71;98082.28;1740224;82;20080;-71
2022/12/25 06:01:10;;;;;;;;;;;;;;;3.26;95.83;98084.05;1740460;83;20332;-70
2022/12/25 06:03:37;;;;;;;;;;;;;;;3.24;95.62;98085.77;1756923;81;20120;-70
2022/12/25 06:06:03;;;;;;;;;;;;;;;3.22;95.61;98083.59;1772549;81;20089;-70
2022/12/25 06:08:29;;;;;;;;;;;;;;;3.21;95.59;98093.64;1777077;81;20097;-70
2022/12/25 06:10:55;;;;;;;;;;;;;;;3.22;95.73;98094.49;1777008;81;20105;-70
2022/12/25 06:13:21;;;;;;;;;;;;;;;3.22;95.58;98091.45;1777165;81;20192;-70
2022/12/25 06:15:48;;;;;;;;;;;;;;;3.18;95.57;98093.63;1753017;80;20091;-70
2022/12/25 06:18:14;;;;;;;;;;;;;;;3.17;95.36;98099.28;1746511;82;20084;-71
2022/12/25 06:20:40;;;;;;;;;;;;;;;3.14;95.25;98097.98;1746500;82;20091;-70
2022/12/25 06:23:06;;;;;;;;;;;;;;;3.11;95.33;98102.35;1746467;82;20146;-70
2022/12/25 06:25:32;;;;;;;;;;;;;;;3.07;95.07;98108.45;1746512;82;20100;-70
2022/12/25 06:27:59;;;;;;;;;;;;;;;3.03;95.24;98108.43;1771216;81;20093;-70
2022/12/25 06:30:25;;;;;;;;;;;;;;;2.99;95.09;98118.91;1777271;81;20080;-70
2022/12/25 06:32:51;;;;;;;;;;;;;;;2.94;94.88;98124.56;1777097;81;20372;-70
2022/12/25 06:35:18;;;;;;;;;;;;;;;2.89;94.94;98126.72;1765164;80;20083;-70
2022/12/25 06:37:44;;;;;;;;;;;;;;;2.85;95.42;98128.00;1746549;82;20116;-70
2022/12/25 06:40:12;;;;;;;;;;;;;;;2.81;95.08;98128.85;1746486;82;20095;-70
2022/12/25 06:42:39;;;;;;;;;;;;;;;2.76;94.91;98138.90;1746457;82;20099;-70
2022/12/25 06:45:05;;;;;;;;;;;;;;;2.72;94.92;98141.48;1755085;81;20330;-70
2022/12/25 06:47:32;;;;;;;;;;;;;;;2.70;95.22;98143.23;1776786;81;20144;-70
2022/12/25 06:49:58;;;;;;;;;;;;;;;2.69;95.26;98148.88;1777088;80;20081;-70
2022/12/25 06:52:24;;;;;;;;;;;;;;;2.73;95.73;98152.38;1777121;81;20085;-70
2022/12/25 06:54:50;;;;;;;;;;;;;;;2.80;96.11;98158.09;1776918;80;20090;-70
2022/12/25 06:57:17;;;;;;;;;;;;;;;2.93;96.38;98165.98;1763800;81;20100;-70
2022/12/25 06:59:44;;;;;;;;;;;;;;;3.07;96.57;98161.67;1723376;82;20111;-71
2022/12/25 07:02:14;;;;;;;;;;;;;;;3.15;96.39;98165.63;1746342;82;20344;-70
2022/12/25 07:04:41;;;;;;;;;;;;;;;3.22;96.06;98162.59;1746280;82;20127;-71
2022/12/25 07:07:08;;;;;;;;;;;;;;;3.31;96.07;98162.62;1746402;82;20119;-70
2022/12/25 07:09:34;;;;;;;;;;;;;;;3.40;96.27;98175.74;1750853;81;20100;-70
2022/12/25 07:12:07;;;;;;;;;;;;;;;3.53;96.27;98183.19;1746391;82;20123;-71
2022/12/25 07:14:33;;;;;;;;;;;;;;;3.59;95.92;98183.64;1745480;82;20087;-70
2022/12/25 07:16:59;;;;;;;;;;;;;;;3.65;95.87;98186.27;1746485;82;20364;-74
2022/12/25 07:19:26;;;;;;;;;;;;;;;3.71;95.73;98180.17;1746619;82;20264;-75
2022/12/25 07:21:52;;;;;;;;;;;;;;;3.77;95.82;98184.09;1750440;81;20159;-75
2022/12/25 07:24:20;;;;;;;;;;;;;;;3.87;95.98;98194.17;1746331;82;20096;-75
2022/12/25 07:26:47;;;;;;;;;;;;;;;3.99;96.07;98192.42;1745209;82;20328;-75
2022/12/25 07:29:14;;;;;;;;;;;;;;;4.08;95.86;98189.80;1746466;82;20122;-75
2022/12/25 07:31:40;;;;;;;;;;;;;;;4.17;95.64;98195.05;1756543;81;20093;-75
2022/12/25 07:34:06;;;;;;;;;;;;;;;4.27;95.59;98202.45;1776958;80;20113;-75
2022/12/25 07:36:32;;;;;;;;;;;;;;;4.38;95.30;98206.81;1777120;81;20108;-75
2022/12/25 07:38:58;;;;;;;;;;;;;;;4.48;95.24;98204.61;1776967;80;20084;-75
2022/12/25 07:41:24;;;;;;;;;;;;;;;4.57;94.75;98201.12;1749164;81;20087;-75
2022/12/25 07:43:53;;;;;;;;;;;;;;;4.63;95.02;98194.53;1746449;82;20371;-75
2022/12/25 07:46:21;;;;;;;;;;;;;;;4.67;94.67;98201.95;1746547;82;20071;-75
2022/12/25 07:48:48;;;;;;;;;;;;;;;4.71;94.76;98203.70;1746479;82;20325;-75
2022/12/25 07:51:15;;;;;;;;;;;;;;;4.75;94.34;98210.27;1771789;81;20117;-75
2022/12/25 07:53:41;;;;;;;;;;;;;;;4.77;94.11;98210.23;1777017;80;20163;-75
2022/12/25 07:56:11;;;;;;;;;;;;;;;4.81;94.05;98219.00;1776986;80;20322;-75
2022/12/25 07:58:37;;;;;;;;;;;;;;;4.85;94.03;98227.28;1776675;81;20126;-75
2022/12/25 08:01:06;;;;;;;;;;;;;;;4.88;94.06;98229.91;1777043;80;20085;-75
2022/12/25 08:03:34;;;;;;;;;;;;;;;4.91;93.70;98230.34;1747760;81;20143;-75
2022/12/25 08:06:02;;;;;;;;;;;;;;;4.94;93.79;98246.95;1744821;82;20320;-75
2022/12/25 08:08:29;;;;;;;;;;;;;;;4.97;93.83;98255.27;1726174;83;20081;-75
2022/12/25 08:10:57;;;;;;;;;;;;;;;4.99;93.88;98255.70;1726028;83;20089;-75
2022/12/25 08:13:23;;;;;;;;;;;;;;;5.00;93.57;98260.09;1725329;82;20097;-75
2022/12/25 08:15:49;;;;;;;;;;;;;;;5.04;93.77;98253.50;1755622;82;20118;-75
2022/12/25 08:18:15;;;;;;;;;;;;;;;5.10;93.75;98252.16;1756105;82;20362;-75
2022/12/25 08:20:42;;;;;;;;;;;;;;;5.18;93.72;98256.95;1756035;82;20106;-75
2022/12/25 08:23:08;;;;;;;;;;;;;;;5.28;93.55;98265.70;1756107;82;20095;-75
2022/12/25 08:25:34;;;;;;;;;;;;;;;5.36;92.85;98270.46;1730878;82;20106;-75
2022/12/25 08:28:01;;;;;;;;;;;;;;;5.49;93.19;98273.91;1725968;83;20141;-75
2022/12/25 08:30:27;;;;;;;;;;;;;;;5.60;93.20;98276.50;1726309;83;20096;-75
2022/12/25 08:32:54;;;;;;;;;;;;;;;5.70;93.09;98286.97;1726030;83;20121;-75
2022/12/25 08:35:20;;;;;;;;;;;;;;;5.79;93.10;98290.44;1725951;83;20093;-75
2022/12/25 08:37:46;;;;;;;;;;;;;;;5.89;93.13;98279.84;1736232;82;20138;-75
2022/12/25 08:40:13;;;;;;;;;;;;;;;5.99;92.57;98285.50;1755890;82;20090;-75
2022/12/25 08:42:39;;;;;;;;;;;;;;;6.08;92.76;98279.33;1756001;82;20143;-75
2022/12/25 08:45:06;;;;;;;;;;;;;;;6.17;91.97;98276.64;1756003;82;20339;-75
2022/12/25 08:47:32;;;;;;;;;;;;;;;6.27;92.31;98276.57;1733667;82;20113;-75
2022/12/25 08:49:58;;;;;;;;;;;;;;;6.36;92.11;98273.88;1726024;83;20118;-75
2022/12/25 08:52:25;;;;;;;;;;;;;;;6.45;91.63;98275.08;1726111;83;20101;-75
2022/12/25 08:54:51;;;;;;;;;;;;;;;6.52;90.39;98275.91;1701057;83;20402;-75
2022/12/25 08:57:17;;;;;;;;;;;;;;;6.60;89.94;98275.41;1726123;83;20097;-75
2022/12/25 08:59:43;;;;;;;;;;;;;;;6.66;89.91;98275.80;1749280;82;20091;-75
2022/12/25 09:02:11;;;;;;;;;;;;;;;6.72;89.28;98274.84;1755909;82;20091;-75
2022/12/25 09:04:37;;;;;;;;;;;;;;;6.79;89.32;98273.92;1756008;82;20381;-75
2022/12/25 09:07:03;;;;;;;;;;;;;;;6.88;89.52;98276.90;1745402;80;20141;-75
2022/12/25 09:09:29;;;;;;;;;;;;;;;6.97;89.14;98275.49;1725967;83;20101;-76
2022/12/25 09:11:58;;;;;;;;;;;;;;;7.05;87.44;98269.28;1725993;83;20125;-76
2022/12/25 09:14:25;;;;;;;;;;;;;;;7.13;87.19;98273.57;1725577;82;20330;-76
2022/12/25 09:16:51;;;;;;;;;;;;;;;7.21;86.09;98269.53;1733436;82;20415;-76
2022/12/25 09:19:17;;;;;;;;;;;;;;;7.30;87.70;98276.91;1755976;82;20159;-76
2022/12/25 09:21:44;;;;;;;;;;;;;;;7.39;87.30;98284.69;1755998;82;20091;-75
2022/12/25 09:24:10;;;;;;;;;;;;;;;7.46;87.28;98292.97;1755928;82;20087;-75
2022/12/25 09:26:37;;;;;;;;;;;;;;;7.52;86.63;98287.61;1755897;82;20190;-75
2022/12/25 09:29:03;;;;;;;;;;;;;;;7.60;87.31;98288.83;1744896;82;20097;-75
2022/12/25 09:31:29;;;;;;;;;;;;;;;7.66;86.55;98291.41;1725998;83;20097;-75
2022/12/25 09:33:57;;;;;;;;;;;;;;;7.74;86.31;98296.58;1726020;83;20143;-75
2022/12/25 09:36:24;;;;;;;;;;;;;;;7.79;84.38;98296.06;1725811;83;20136;-74
2022/12/25 09:38:51;;;;;;;;;;;;;;;7.84;84.92;98282.80;1726029;83;20097;-74
2022/12/25 09:41:21;;;;;;;;;;;;;;;7.89;83.95;98280.11;1740012;82;20090;-74
2022/12/25 09:43:54;;;;;;;;;;;;;;;7.93;82.78;98291.02;1755936;82;20351;-74
2022/12/25 09:46:24;;;;;;;;;;;;;;;7.96;80.64;98300.66;1755918;82;20371;-74
2022/12/25 09:49:00;;;;;;;;;;;;;;;7.98;81.41;98298.45;1751683;82;20519;-75
2022/12/25 09:51:26;;;;;;;;;;;;;;;8.03;81.04;98291.34;1726003;83;20198;-75
2022/12/25 09:53:56;;;;;;;;;;;;;;;8.09;80.39;98302.24;1726084;83;20408;-75
2022/12/25 09:56:24;;;;;;;;;;;;;;;8.17;80.01;98296.84;1725467;83;20141;-75
2022/12/25 09:58:52;;;;;;;;;;;;;;;8.28;80.01;98290.09;1729986;82;20109;-75
2022/12/25 10:01:21;;;;;;;;;;;;;;;8.38;81.36;98291.69;1756008;82;20376;-75
2022/12/25 10:04:17;;;;;;;;;;;;;;;8.53;79.59;98291.94;1756130;82;20099;-75
2022/12/25 10:07:16;;;;;;;;;;;;;;;8.68;81.61;98295.22;1758281;81;20077;-74
2022/12/25 10:09:52;;;;;;;;;;;;;;;8.81;77.94;98290.59;1770738;81;20105;-75
2022/12/25 10:12:27;;;;;;;;;;;;;;;8.97;81.18;98293.84;1752859;81;20108;-74
2022/12/25 10:15:12;;;;;;;;;;;;;;;9.05;78.71;98287.94;1765949;81;20097;-74
2022/12/25 10:17:54;;;;;;;;;;;;;;;9.07;76.22;98288.80;1770863;81;20349;-74
2022/12/25 10:20:34;;;;;;;;;;;;;;;9.11;75.97;98285.17;1768833;81;20093;-74
2022/12/25 10:23:02;;;;;;;;;;;;;;;9.18;77.34;98290.36;1770454;81;20338;-75
2022/12/25 10:25:29;;;;;;;;;;;;;;;9.18;77.58;98279.31;1740366;82;20116;-75
2022/12/25 10:27:58;;;;;;;;;;;;;;;9.17;76.34;98286.83;1740435;82;20111;-75
2022/12/25 10:30:26;;;;;;;;;;;;;;;9.17;77.10;98285.51;1740403;82;20100;-75
2022/12/25 10:32:55;;;;;;;;;;;;;;;9.18;77.89;98280.64;1740304;82;20147;-75
2022/12/25 10:35:27;;;;;;;;;;;;;;;9.20;76.80;98283.25;1742368;81;20128;-75
2022/12/25 10:37:59;;;;;;;;;;;;;;;9.21;77.57;98286.31;1740428;82;20096;-75
2022/12/25 10:40:45;;;;;;;;;;;;;;;9.17;71.82;98285.51;1740231;83;20494;-75
2022/12/25 10:43:26;;;;;;;;;;;;;;;9.20;74.80;98288.11;1740301;83;20470;-76
2022/12/25 10:45:52;;;;;;;;;;;;;;;9.38;74.96;98279.37;1739993;83;20107;-76
2022/12/25 10:48:27;;;;;;;;;;;;;;;9.69;75.64;98280.52;1752583;81;20085;-73
2022/12/25 10:50:54;;;;;;;;;;;;;;;9.81;75.94;98284.23;1770721;81;20105;-75
2022/12/25 10:53:25;;;;;;;;;;;;;;;9.84;73.61;98283.30;1770662;81;20078;-75
2022/12/25 10:56:03;;;;;;;;;;;;;;;9.81;70.73;98288.20;1768670;81;20132;-75
2022/12/25 10:58:30;;;;;;;;;;;;;;;9.93;66.10;98291.48;1759361;81;20321;-75
2022/12/25 11:01:00;;;;;;;;;;;;;;;10.34;64.28;98290.97;1770647;81;20141;-75
2022/12/25 11:03:29;;;;;;;;;;;;;;;11.20;62.74;98283.53;1770087;81;20433;-75
2022/12/25 11:05:55;;;;;;;;;;;;;;;12.38;66.33;98274.77;1768410;81;20085;-75
2022/12/25 11:08:25;;;;;;;;;;;;;;;13.43;63.63;98265.44;1737230;82;20386;-75
2022/12/25 11:10:54;;;;;;;;;;;;;;;14.01;60.97;98265.97;1755947;82;20122;-75
2022/12/25 11:13:28;;;;;;;;;;;;;;;14.63;55.88;98242.14;1755425;82;20138;-75
2022/12/25 11:16:10;;;;;;;;;;;;;;;15.54;60.54;98239.58;1755940;82;20083;-75
2022/12/25 11:18:48;;;;;;;;;;;;;;;16.01;56.91;98236.97;1753577;82;20154;-75
2022/12/25 11:21:27;;;;;;;;;;;;;;;15.30;57.27;98241.97;1756045;82;20360;-75
2022/12/25 11:24:02;;;;;;;;;;;;;;;14.93;56.63;98238.24;1756026;82;20340;-75
2022/12/25 11:26:31;;;;;;;;;;;;;;;15.24;55.12;98250.22;1755300;82;20335;-75
2022/12/25 11:28:58;;;;;;;;;;;;;;;15.00;54.15;98248.19;1755547;82;20091;-76
2022/12/25 11:31:39;;;;;;;;;;;;;;;14.72;55.35;98250.67;1755642;82;20344;-74
2022/12/25 11:34:31;;;;;;;;;;;;;;;14.22;56.19;98255.37;1755980;82;20079;-74
2022/12/25 11:36:58;;;;;;;;;;;;;;;13.69;57.42;98254.74;1755590;82;20132;-76
2022/12/25 11:39:28;;;;;;;;;;;;;;;13.29;57.78;98261.93;1756042;82;20086;-74
2022/12/25 11:42:21;;;;;;;;;;;;;;;12.91;53.27;98260.17;1750878;82;20147;-74
2022/12/25 11:44:54;;;;;;;;;;;;;;;12.39;53.10;98266.34;1726068;83;20125;-75
2022/12/25 11:47:26;;;;;;;;;;;;;;;12.77;55.55;98257.99;1726278;83;20085;-75
2022/12/25 11:50:02;;;;;;;;;;;;;;;12.46;54.90;98257.70;1724586;83;20126;-75
2022/12/25 11:52:34;;;;;;;;;;;;;;;12.18;54.31;98272.77;1725624;83;20109;-75
2022/12/25 11:55:10;;;;;;;;;;;;;;;11.74;53.12;98265.20;1742920;82;20123;-75
2022/12/25 11:57:37;;;;;;;;;;;;;;;11.47;54.50;98264.63;1755020;82;20119;-75
2022/12/25 12:00:09;;;;;;;;;;;;;;;11.22;56.44;98269.31;1755935;82;20170;-75
2022/12/25 12:02:53;;;;;;;;;;;;;;;11.21;55.79;98270.67;1755126;82;20368;-75
2022/12/25 12:05:32;;;;;;;;;;;;;;;11.17;56.83;98271.23;1752937;82;20119;-75
2022/12/25 12:08:01;;;;;;;;;;;;;;;11.31;58.25;98269.53;1755989;81;20099;-75
2022/12/25 12:10:34;;;;;;;;;;;;;;;11.33;56.80;98273.00;1755915;82;20392;-75
2022/12/25 12:13:13;;;;;;;;;;;;;;;11.22;57.04;98261.36;1755958;82;20095;-75
2022/12/25 12:15:47;;;;;;;;;;;;;;;11.83;55.96;98269.39;1729076;82;20093;-75
2022/12/25 12:18:23;;;;;;;;;;;;;;;11.69;56.09;98261.37;1731892;82;20085;-75
2022/12/25 12:21:11;;;;;;;;;;;;;;;11.59;57.88;98272.70;1726126;83;20117;-75
2022/12/25 12:23:54;;;;;;;;;;;;;;;12.09;57.74;98267.26;1724895;83;20097;-75
2022/12/25 12:26:23;;;;;;;;;;;;;;;12.38;58.17;98281.88;1726118;83;20117;-75
2022/12/25 12:28:51;;;;;;;;;;;;;;;12.63;57.51;98278.42;1742517;82;20079;-75
2022/12/25 12:31:18;;;;;;;;;;;;;;;12.24;54.46;98289.83;1755882;82;20162;-75
2022/12/25 12:33:50;;;;;;;;;;;;;;;11.96;56.49;98291.98;1755869;82;20095;-75
2022/12/25 12:36:18;;;;;;;;;;;;;;;11.76;58.12;98289.94;1755326;82;20122;-75
2022/12/25 12:38:45;;;;;;;;;;;;;;;11.64;58.11;98298.25;1755917;82;20324;-75
2022/12/25 12:41:13;;;;;;;;;;;;;;;11.48;58.21;98300.02;1752957;82;20103;-75
2022/12/25 12:43:46;;;;;;;;;;;;;;;11.32;59.24;98313.72;1751008;82;20091;-75
2022/12/25 12:46:29;;;;;;;;;;;;;;;11.16;57.96;98319.89;1755906;82;20114;-75
2022/12/25 12:49:11;;;;;;;;;;;;;;;10.98;57.58;98317.72;1755958;82;20087;-76
2022/12/25 12:51:38;;;;;;;;;;;;;;;10.74;58.37;98321.41;1755098;82;20139;-73
2022/12/25 12:54:11;;;;;;;;;;;;;;;10.65;59.84;98317.22;1727118;82;20089;-76
2022/12/25 12:56:37;;;;;;;;;;;;;;;10.60;60.32;98319.11;1717573;83;20109;-76
2022/12/25 12:59:03;;;;;;;;;;;;;;;10.53;60.71;98317.95;1726157;83;20357;-76
2022/12/25 13:01:33;;;;;;;;;;;;;;;10.47;60.94;98327.81;1726107;83;20089;-75
2022/12/25 13:04:20;;;;;;;;;;;;;;;10.41;61.61;98319.08;1728045;82;20128;-74
2022/12/25 13:07:10;;;;;;;;;;;;;;;10.31;61.89;98329.47;1726805;82;20129;-74
2022/12/25 13:09:46;;;;;;;;;;;;;;;10.19;62.31;98323.12;1740256;82;20119;-75
2022/12/25 13:12:14;;;;;;;;;;;;;;;10.12;62.72;98331.65;1738777;82;20095;-75
2022/12/25 13:14:45;;;;;;;;;;;;;;;9.98;63.53;98326.67;1740116;82;20120;-75
2022/12/25 13:17:15;;;;;;;;;;;;;;;9.87;64.66;98330.86;1763161;81;20148;-74
2022/12/25 13:19:42;;;;;;;;;;;;;;;9.72;65.50;98334.72;1740279;83;20151;-74
2022/12/25 13:22:24;;;;;;;;;;;;;;;9.54;66.06;98328.03;1740288;81;20361;-74
2022/12/25 13:24:59;;;;;;;;;;;;;;;9.38;66.87;98330.95;1740519;83;20328;-75
2022/12/25 13:27:28;;;;;;;;;;;;;;;9.24;67.05;98341.37;1740773;81;20107;-75
2022/12/25 13:29:56;;;;;;;;;;;;;;;9.14;67.55;98338.48;1741134;81;20092;-75
2022/12/25 13:32:27;;;;;;;;;;;;;;;9.02;68.58;98332.95;1740505;82;20136;-75
2022/12/25 13:34:54;;;;;;;;;;;;;;;8.91;68.30;98341.06;1713444;83;20154;-75
2022/12/25 13:37:23;;;;;;;;;;;;;;;8.79;69.18;98340.83;1740476;82;20902;-75
2022/12/25 13:39:53;;;;;;;;;;;;;;;8.68;69.75;98340.98;1746246;81;20085;-75
2022/12/25 13:42:25;;;;;;;;;;;;;;;8.56;70.18;98342.52;1770728;81;20338;-75
2022/12/25 13:45:00;;;;;;;;;;;;;;;8.48;70.23;98360.22;1765084;81;20156;-75
2022/12/25 13:47:32;;;;;;;;;;;;;;;8.37;70.90;98373.58;1770866;81;20148;-75
2022/12/25 13:50:02;;;;;;;;;;;;;;;8.29;71.08;98357.84;1770719;81;20336;-75
2022/12/25 13:52:34;;;;;;;;;;;;;;;8.21;71.19;98355.78;1761526;81;20109;-76
2022/12/25 13:55:13;;;;;;;;;;;;;;;8.13;71.74;98365.98;1770765;81;20121;-76
2022/12/25 13:57:42;;;;;;;;;;;;;;;8.01;71.65;98358.25;1770705;81;20090;-76
2022/12/25 14:00:19;;;;;;;;;;;;;;;7.90;72.12;98359.23;1770866;81;20074;-75
2022/12/25 14:02:45;;;;;;;;;;;;;;;7.83;72.01;98367.25;1770637;81;20098;-76
2022/12/25 14:05:30;;;;;;;;;;;;;;;7.72;72.75;98355.53;1748744;81;20367;-75
2022/12/25 14:07:59;;;;;;;;;;;;;;;7.63;72.98;98370.57;1734990;83;20388;-75
2022/12/25 14:10:28;;;;;;;;;;;;;;;7.53;73.54;98369.78;1740302;83;20080;-75
2022/12/25 14:12:57;;;;;;;;;;;;;;;7.45;74.17;98361.55;1753983;81;20113;-75
2022/12/25 14:15:23;;;;;;;;;;;;;;;7.36;73.79;98373.92;1771181;81;20385;-76
2022/12/25 14:17:51;;;;;;;;;;;;;;;7.31;74.15;98377.52;1770403;80;20126;-75
2022/12/25 14:20:23;;;;;;;;;;;;;;;7.24;74.04;98374.95;1770768;81;20148;-76
2022/12/25 14:22:52;;;;;;;;;;;;;;;7.18;74.13;98382.90;1763735;81;20132;-76
2022/12/25 14:25:19;;;;;;;;;;;;;;;7.10;74.69;98386.08;1742306;81;20360;-76
2022/12/25 14:27:50;;;;;;;;;;;;;;;7.04;75.29;98384.78;1740435;82;20092;-76
2022/12/25 14:30:17;;;;;;;;;;;;;;;6.96;75.04;98390.13;1740509;82;20382;-76
2022/12/25 14:32:49;;;;;;;;;;;;;;;6.88;75.32;98388.88;1761247;81;20109;-76
2022/12/25 14:35:16;;;;;;;;;;;;;;;6.81;75.73;98388.05;1770824;81;20089;-76
2022/12/25 14:37:42;;;;;;;;;;;;;;;6.73;75.82;98390.75;1770973;81;20140;-74
2022/12/25 14:40:27;;;;;;;;;;;;;;;6.66;75.81;98396.95;1770678;81;20118;-76
2022/12/25 14:43:02;;;;;;;;;;;;;;;6.60;76.59;98396.98;1749663;81;20111;-76
2022/12/25 14:45:41;;;;;;;;;;;;;;;6.50;76.22;98401.45;1713211;83;20071;-76
2022/12/25 14:48:17;;;;;;;;;;;;;;;6.40;76.49;98404.56;1739272;82;20111;-76
2022/12/25 14:50:56;;;;;;;;;;;;;;;6.34;76.36;98409.45;1740458;82;20103;-76
2022/12/25 14:53:25;;;;;;;;;;;;;;;6.27;77.07;98415.61;1740341;82;20131;-76
2022/12/25 14:55:53;;;;;;;;;;;;;;;6.20;77.13;98416.08;1763258;81;20136;-76
2022/12/25 14:58:22;;;;;;;;;;;;;;;6.15;77.28;98414.38;1770768;81;20124;-76